Aviation Digital Data Service (ADDS)

Output produced by METARs form (0939 UTC 23 July 2019)
found at http://www.aviationweather.gov/metar/data/
 
METAR text: BIEG 230900Z 35005KT 9999 FEW008 SCT023 OVC037 10/07 Q1008 RMK WIND GAGNHEIDI 01009KT
Conditions at: BIEG (EGILSSTADIR , IS) observed 0900 UTC 23 July 2019
Temperature: 10.0°C (50°F)
Dewpoint: 7.0°C (45°F) [RH = 82%]
Pressure (altimeter): 29.76 inches Hg (1008.0 mb)
Winds: from the N (350 degrees) at 6 MPH (5 knots; 2.6 m/s)
Visibility: 6 or more miles (10+ km)
Ceiling: 3700 feet AGL
Clouds: few clouds at 800 feet AGL
scattered clouds at 2300 feet AGL
overcast cloud deck at 3700 feet AGL
Weather: no significant weather observed at this time

METAR text: BIEG 230800Z 35005KT 9999 FEW008 SCT021 OVC038 09/07 Q1008 RMK WIND GAGNHEIDI 36004KT
Conditions at: BIEG (EGILSSTADIR , IS) observed 0800 UTC 23 July 2019
Temperature: 9.0°C (48°F)
Dewpoint: 7.0°C (45°F) [RH = 87%]
Pressure (altimeter): 29.76 inches Hg (1008.0 mb)
Winds: from the N (350 degrees) at 6 MPH (5 knots; 2.6 m/s)
Visibility: 6 or more miles (10+ km)
Ceiling: 3800 feet AGL
Clouds: few clouds at 800 feet AGL
scattered clouds at 2100 feet AGL
overcast cloud deck at 3800 feet AGL
Weather: no significant weather observed at this time

METAR text: BIEG 230700Z 01004KT 9999 FEW008 BKN023 OVC041 09/07 Q1008 RMK WIND GAGNHEIDI 31003KT
Conditions at: BIEG (EGILSSTADIR , IS) observed 0700 UTC 23 July 2019
Temperature: 9.0°C (48°F)
Dewpoint: 7.0°C (45°F) [RH = 87%]
Pressure (altimeter): 29.76 inches Hg (1008.0 mb)
Winds: from the N (10 degrees) at 5 MPH (4 knots; 2.1 m/s)
Visibility: 6 or more miles (10+ km)
Ceiling: 2300 feet AGL
Clouds: few clouds at 800 feet AGL
broken clouds at 2300 feet AGL
overcast cloud deck at 4100 feet AGL
Weather: no significant weather observed at this time

METAR text: BIEG 230600Z 00000KT 9999 FEW010 OVC025 09/07 Q1008 RMK WIND GAGNHEIDI 33003KT
Conditions at: BIEG (EGILSSTADIR , IS) observed 0600 UTC 23 July 2019
Temperature: 9.0°C (48°F)
Dewpoint: 7.0°C (45°F) [RH = 87%]
Pressure (altimeter): 29.76 inches Hg (1008.0 mb)
Winds: calm
Visibility: 6 or more miles (10+ km)
Ceiling: 2500 feet AGL
Clouds: few clouds at 1000 feet AGL
overcast cloud deck at 2500 feet AGL
Weather: no significant weather observed at this time

METAR text: BIEG 230500Z 00000KT 9999 SCT020 OVC039 08/07 Q1007 RMK WIND GAGNHEIDI 35006KT
Conditions at: BIEG (EGILSSTADIR , IS) observed 0500 UTC 23 July 2019
Temperature: 8.0°C (46°F)
Dewpoint: 7.0°C (45°F) [RH = 93%]
Pressure (altimeter): 29.73 inches Hg (1007.0 mb)
Winds: calm
Visibility: 6 or more miles (10+ km)
Ceiling: 3900 feet AGL
Clouds: scattered clouds at 2000 feet AGL
overcast cloud deck at 3900 feet AGL
Weather: no significant weather observed at this time

METAR text: BIEG 230400Z 00000KT 9999 FEW010 BKN018 OVC040 08/07 Q1007 RMK WIND GAGNHEIDI 32004KT
Conditions at: BIEG (EGILSSTADIR , IS) observed 0400 UTC 23 July 2019
Temperature: 8.0°C (46°F)
Dewpoint: 7.0°C (45°F) [RH = 93%]
Pressure (altimeter): 29.73 inches Hg (1007.0 mb)
Winds: calm
Visibility: 6 or more miles (10+ km)
Ceiling: 1800 feet AGL
Clouds: few clouds at 1000 feet AGL
broken clouds at 1800 feet AGL
overcast cloud deck at 4000 feet AGL
Weather: no significant weather observed at this time

METAR text: BIEG 230300Z 00000KT 9999 FEW009 BKN018 OVC040 08/07 Q1007 RMK WIND GAGNHEIDI 34010KT
Conditions at: BIEG (EGILSSTADIR , IS) observed 0300 UTC 23 July 2019
Temperature: 8.0°C (46°F)
Dewpoint: 7.0°C (45°F) [RH = 93%]
Pressure (altimeter): 29.73 inches Hg (1007.0 mb)
Winds: calm
Visibility: 6 or more miles (10+ km)
Ceiling: 1800 feet AGL
Clouds: few clouds at 900 feet AGL
broken clouds at 1800 feet AGL
overcast cloud deck at 4000 feet AGL
Weather: no significant weather observed at this time

METAR text: BIEG 230200Z 00000KT 9999 BKN009 OVC020 08/07 Q1007 RMK WIND GAGNHEIDI 33007KT
Conditions at: BIEG (EGILSSTADIR , IS) observed 0200 UTC 23 July 2019
Temperature: 8.0°C (46°F)
Dewpoint: 7.0°C (45°F) [RH = 93%]
Pressure (altimeter): 29.73 inches Hg (1007.0 mb)
Winds: calm
Visibility: 6 or more miles (10+ km)
Ceiling: 900 feet AGL
Clouds: broken clouds at 900 feet AGL
overcast cloud deck at 2000 feet AGL
Weather: no significant weather observed at this time

METAR text: BIEG 230100Z 00000KT 9999 BKN016 OVC025 08/07 Q1007 RMK WIND GAGNHEIDI 35008KT
Conditions at: BIEG (EGILSSTADIR , IS) observed 0100 UTC 23 July 2019
Temperature: 8.0°C (46°F)
Dewpoint: 7.0°C (45°F) [RH = 93%]
Pressure (altimeter): 29.73 inches Hg (1007.0 mb)
Winds: calm
Visibility: 6 or more miles (10+ km)
Ceiling: 1600 feet AGL
Clouds: broken clouds at 1600 feet AGL
overcast cloud deck at 2500 feet AGL
Weather: no significant weather observed at this time

METAR text: BIEG 230000Z 08003KT 9999 BKN012 OVC020 08/07 Q1007 RMK WIND GAGNHEIDI 01008KT
Conditions at: BIEG (EGILSSTADIR , IS) observed 0000 UTC 23 July 2019
Temperature: 8.0°C (46°F)
Dewpoint: 7.0°C (45°F) [RH = 93%]
Pressure (altimeter): 29.73 inches Hg (1007.0 mb)
Winds: from the E (80 degrees) at 3 MPH (3 knots; 1.5 m/s)
Visibility: 6 or more miles (10+ km)
Ceiling: 1200 feet AGL
Clouds: broken clouds at 1200 feet AGL
overcast cloud deck at 2000 feet AGL
Weather: no significant weather observed at this time

METAR text: BIEG 222300Z 33004KT 9999 BKN010 OVC020 08/07 Q1007 RMK WIND GAGNHEIDI 02010KT
Conditions at: BIEG (EGILSSTADIR , IS) observed 2300 UTC 22 July 2019
Temperature: 8.0°C (46°F)
Dewpoint: 7.0°C (45°F) [RH = 93%]
Pressure (altimeter): 29.73 inches Hg (1007.0 mb)
Winds: from the NNW (330 degrees) at 5 MPH (4 knots; 2.1 m/s)
Visibility: 6 or more miles (10+ km)
Ceiling: 1000 feet AGL
Clouds: broken clouds at 1000 feet AGL
overcast cloud deck at 2000 feet AGL
Weather: no significant weather observed at this time

METAR text: BIEG 222200Z 34005KT 9999 BKN010 OVC019 08/07 Q1006 RMK WIND GAGNHEIDI 01010KT
Conditions at: BIEG (EGILSSTADIR , IS) observed 2200 UTC 22 July 2019
Temperature: 8.0°C (46°F)
Dewpoint: 7.0°C (45°F) [RH = 93%]
Pressure (altimeter): 29.70 inches Hg (1006.0 mb)
Winds: from the NNW (340 degrees) at 6 MPH (5 knots; 2.6 m/s)
Visibility: 6 or more miles (10+ km)
Ceiling: 1000 feet AGL
Clouds: broken clouds at 1000 feet AGL
overcast cloud deck at 1900 feet AGL
Weather: no significant weather observed at this time

METAR text: BIEG 222049Z 36006KT 9999 SCT008 OVC019 09/07 Q1006 RMK WIND GAGNHEIDI 01012KT
Conditions at: BIEG (EGILSSTADIR , IS) observed 2049 UTC 22 July 2019
Temperature: 9.0°C (48°F)
Dewpoint: 7.0°C (45°F) [RH = 87%]
Pressure (altimeter): 29.70 inches Hg (1006.0 mb)
Winds: from the N (360 degrees) at 7 MPH (6 knots; 3.1 m/s)
Visibility: 6 or more miles (10+ km)
Ceiling: 1900 feet AGL
Clouds: scattered clouds at 800 feet AGL
overcast cloud deck at 1900 feet AGL
Weather: no significant weather observed at this time

METAR text: BIEG 222000Z 36007KT 9999 BKN008 OVC024 09/07 Q1006 RMK WIND GAGNHEIDI 01015KT
Conditions at: BIEG (EGILSSTADIR , IS) observed 2000 UTC 22 July 2019
Temperature: 9.0°C (48°F)
Dewpoint: 7.0°C (45°F) [RH = 87%]
Pressure (altimeter): 29.70 inches Hg (1006.0 mb)
Winds: from the N (360 degrees) at 8 MPH (7 knots; 3.6 m/s)
Visibility: 6 or more miles (10+ km)
Ceiling: 800 feet AGL
Clouds: broken clouds at 800 feet AGL
overcast cloud deck at 2400 feet AGL
Weather: no significant weather observed at this time

METAR text: BIEG 221900Z 36006KT 9999 BKN009 OVC022 10/07 Q1005 RMK WIND GAGNHEIDI 01017KT
Conditions at: BIEG (EGILSSTADIR , IS) observed 1900 UTC 22 July 2019
Temperature: 10.0°C (50°F)
Dewpoint: 7.0°C (45°F) [RH = 82%]
Pressure (altimeter): 29.68 inches Hg (1005.0 mb)
Winds: from the N (360 degrees) at 7 MPH (6 knots; 3.1 m/s)
Visibility: 6 or more miles (10+ km)
Ceiling: 900 feet AGL
Clouds: broken clouds at 900 feet AGL
overcast cloud deck at 2200 feet AGL
Weather: no significant weather observed at this time

METAR text: BIEG 221800Z 36006KT 9999 BKN010 OVC022 10/07 Q1005 RMK WIND GAGNHEIDI 36016KT
Conditions at: BIEG (EGILSSTADIR , IS) observed 1800 UTC 22 July 2019
Temperature: 10.0°C (50°F)
Dewpoint: 7.0°C (45°F) [RH = 82%]
Pressure (altimeter): 29.68 inches Hg (1005.0 mb)
Winds: from the N (360 degrees) at 7 MPH (6 knots; 3.1 m/s)
Visibility: 6 or more miles (10+ km)
Ceiling: 1000 feet AGL
Clouds: broken clouds at 1000 feet AGL
overcast cloud deck at 2200 feet AGL
Weather: no significant weather observed at this time

METAR text: BIEG 221700Z 36009KT 9999 BKN010 OVC020 09/07 Q1005 RMK WIND GAGNHEIDI 36017KT
Conditions at: BIEG (EGILSSTADIR , IS) observed 1700 UTC 22 July 2019
Temperature: 9.0°C (48°F)
Dewpoint: 7.0°C (45°F) [RH = 87%]
Pressure (altimeter): 29.68 inches Hg (1005.0 mb)
Winds: from the N (360 degrees) at 10 MPH (9 knots; 4.6 m/s)
Visibility: 6 or more miles (10+ km)
Ceiling: 1000 feet AGL
Clouds: broken clouds at 1000 feet AGL
overcast cloud deck at 2000 feet AGL
Weather: no significant weather observed at this time

METAR text: BIEG 221600Z 01010KT 9999 VCSH BKN007 OVC014 09/08 Q1005 RMK WIND GAGNHEIDI 01019KT
Conditions at: BIEG (EGILSSTADIR , IS) observed 1600 UTC 22 July 2019
Temperature: 9.0°C (48°F)
Dewpoint: 8.0°C (46°F) [RH = 93%]
Pressure (altimeter): 29.68 inches Hg (1005.0 mb)
Winds: from the N (10 degrees) at 12 MPH (10 knots; 5.1 m/s)
Visibility: 6 or more miles (10+ km)
Ceiling: 700 feet AGL
Clouds: broken clouds at 700 feet AGL
overcast cloud deck at 1400 feet AGL
Weather: VCSH  (showers in vicinity)

METAR text: BIEG 221500Z 36015KT 9999 VCSH BKN008 OVC013 09/08 Q1005 RMK WIND GAGNHEIDI 01019KT
Conditions at: BIEG (EGILSSTADIR , IS) observed 1500 UTC 22 July 2019
Temperature: 9.0°C (48°F)
Dewpoint: 8.0°C (46°F) [RH = 93%]
Pressure (altimeter): 29.68 inches Hg (1005.0 mb)
Winds: from the N (360 degrees) at 17 MPH (15 knots; 7.7 m/s)
Visibility: 6 or more miles (10+ km)
Ceiling: 800 feet AGL
Clouds: broken clouds at 800 feet AGL
overcast cloud deck at 1300 feet AGL
Weather: VCSH  (showers in vicinity)

METAR text: BIEG 221400Z 36010KT 9999 BKN007 OVC028 09/08 Q1005 RMK WIND GAGNHEIDI 04017KT
Conditions at: BIEG (EGILSSTADIR , IS) observed 1400 UTC 22 July 2019
Temperature: 9.0°C (48°F)
Dewpoint: 8.0°C (46°F) [RH = 93%]
Pressure (altimeter): 29.68 inches Hg (1005.0 mb)
Winds: from the N (360 degrees) at 12 MPH (10 knots; 5.1 m/s)
Visibility: 6 or more miles (10+ km)
Ceiling: 700 feet AGL
Clouds: broken clouds at 700 feet AGL
overcast cloud deck at 2800 feet AGL
Weather: no significant weather observed at this time

METAR text: BIEG 221300Z 36013KT 9999 BKN007 OVC030 09/08 Q1005 RMK WIND GAGNHEIDI 04017KT
Conditions at: BIEG (EGILSSTADIR , IS) observed 1300 UTC 22 July 2019
Temperature: 9.0°C (48°F)
Dewpoint: 8.0°C (46°F) [RH = 93%]
Pressure (altimeter): 29.68 inches Hg (1005.0 mb)
Winds: from the N (360 degrees) at 15 MPH (13 knots; 6.7 m/s)
Visibility: 6 or more miles (10+ km)
Ceiling: 700 feet AGL
Clouds: broken clouds at 700 feet AGL
overcast cloud deck at 3000 feet AGL
Weather: no significant weather observed at this time

METAR text: BIEG 221200Z 36016KT 9999 BKN006 OVC030 09/08 Q1005 RMK WIND GAGNHEIDI 03016KT
Conditions at: BIEG (EGILSSTADIR , IS) observed 1200 UTC 22 July 2019
Temperature: 9.0°C (48°F)
Dewpoint: 8.0°C (46°F) [RH = 93%]
Pressure (altimeter): 29.68 inches Hg (1005.0 mb)
Winds: from the N (360 degrees) at 18 MPH (16 knots; 8.2 m/s)
Visibility: 6 or more miles (10+ km)
Ceiling: 600 feet AGL
Clouds: broken clouds at 600 feet AGL
overcast cloud deck at 3000 feet AGL
Weather: no significant weather observed at this time

METAR text: BIEG 221100Z 36016KT 9999 OVC005 09/08 Q1005 RMK WIND GAGNHEIDI 05015KT
Conditions at: BIEG (EGILSSTADIR , IS) observed 1100 UTC 22 July 2019
Temperature: 9.0°C (48°F)
Dewpoint: 8.0°C (46°F) [RH = 93%]
Pressure (altimeter): 29.68 inches Hg (1005.0 mb)
Winds: from the N (360 degrees) at 18 MPH (16 knots; 8.2 m/s)
Visibility: 6 or more miles (10+ km)
Ceiling: 500 feet AGL
Clouds: overcast cloud deck at 500 feet AGL
Weather: no significant weather observed at this time

METAR text: BIEG 221000Z 36013KT 9999 OVC006 09/08 Q1005 RMK WIND GAGNHEIDI 06018KT
Conditions at: BIEG (EGILSSTADIR , IS) observed 1000 UTC 22 July 2019
Temperature: 9.0°C (48°F)
Dewpoint: 8.0°C (46°F) [RH = 93%]
Pressure (altimeter): 29.68 inches Hg (1005.0 mb)
Winds: from the N (360 degrees) at 15 MPH (13 knots; 6.7 m/s)
Visibility: 6 or more miles (10+ km)
Ceiling: 600 feet AGL
Clouds: overcast cloud deck at 600 feet AGL
Weather: no significant weather observed at this time

METAR text: BIEG 220900Z 36013KT 9999 OVC005 09/08 Q1004 RMK WIND GAGNHEIDI 06020KT
Conditions at: BIEG (EGILSSTADIR , IS) observed 0900 UTC 22 July 2019
Temperature: 9.0°C (48°F)
Dewpoint: 8.0°C (46°F) [RH = 93%]
Pressure (altimeter): 29.65 inches Hg (1004.0 mb)
Winds: from the N (360 degrees) at 15 MPH (13 knots; 6.7 m/s)
Visibility: 6 or more miles (10+ km)
Ceiling: 500 feet AGL
Clouds: overcast cloud deck at 500 feet AGL
Weather: no significant weather observed at this time

METAR text: BIEG 220800Z 36013KT 9999 BKN005 OVC035 09/08 Q1004 RMK WIND GAGNHEIDI 06022KT
Conditions at: BIEG (EGILSSTADIR , IS) observed 0800 UTC 22 July 2019
Temperature: 9.0°C (48°F)
Dewpoint: 8.0°C (46°F) [RH = 93%]
Pressure (altimeter): 29.65 inches Hg (1004.0 mb)
Winds: from the N (360 degrees) at 15 MPH (13 knots; 6.7 m/s)
Visibility: 6 or more miles (10+ km)
Ceiling: 500 feet AGL
Clouds: broken clouds at 500 feet AGL
overcast cloud deck at 3500 feet AGL
Weather: no significant weather observed at this time

METAR text: BIEG 220700Z 01013KT 9999 BKN004 OVC028 08/08 Q1004 RMK WIND GAGNHEIDI 06016KT
Conditions at: BIEG (EGILSSTADIR , IS) observed 0700 UTC 22 July 2019
Temperature: 8.0°C (46°F)
Dewpoint: 8.0°C (46°F) [RH = 100%]
Pressure (altimeter): 29.65 inches Hg (1004.0 mb)
Winds: from the N (10 degrees) at 15 MPH (13 knots; 6.7 m/s)
Visibility: 6 or more miles (10+ km)
Ceiling: 400 feet AGL
Clouds: broken clouds at 400 feet AGL
overcast cloud deck at 2800 feet AGL
Weather: no significant weather observed at this time

METAR text: BIEG 220600Z 01010KT 9999 BKN004 OVC028 08/08 Q1004 RMK WIND GAGNHEIDI 06019KT
Conditions at: BIEG (EGILSSTADIR , IS) observed 0600 UTC 22 July 2019
Temperature: 8.0°C (46°F)
Dewpoint: 8.0°C (46°F) [RH = 100%]
Pressure (altimeter): 29.65 inches Hg (1004.0 mb)
Winds: from the N (10 degrees) at 12 MPH (10 knots; 5.1 m/s)
Visibility: 6 or more miles (10+ km)
Ceiling: 400 feet AGL
Clouds: broken clouds at 400 feet AGL
overcast cloud deck at 2800 feet AGL
Weather: no significant weather observed at this time

METAR text: BIEG 220500Z 36011KT 9999 OVC005 08/08 Q1004 RMK WIND GAGNHEIDI 06020KT
Conditions at: BIEG (EGILSSTADIR , IS) observed 0500 UTC 22 July 2019
Temperature: 8.0°C (46°F)
Dewpoint: 8.0°C (46°F) [RH = 100%]
Pressure (altimeter): 29.65 inches Hg (1004.0 mb)
Winds: from the N (360 degrees) at 13 MPH (11 knots; 5.7 m/s)
Visibility: 6 or more miles (10+ km)
Ceiling: 500 feet AGL
Clouds: overcast cloud deck at 500 feet AGL
Weather: no significant weather observed at this time

METAR text: BIEG 220400Z 01014KT 9999 OVC005 08/08 Q1005 RMK WIND GAGNHEIDI 07026KT
Conditions at: BIEG (EGILSSTADIR , IS) observed 0400 UTC 22 July 2019
Temperature: 8.0°C (46°F)
Dewpoint: 8.0°C (46°F) [RH = 100%]
Pressure (altimeter): 29.68 inches Hg (1005.0 mb)
Winds: from the N (10 degrees) at 16 MPH (14 knots; 7.2 m/s)
Visibility: 6 or more miles (10+ km)
Ceiling: 500 feet AGL
Clouds: overcast cloud deck at 500 feet AGL
Weather: no significant weather observed at this time

METAR text: BIEG 220300Z 01014KT 9999 OVC004 09/08 Q1005 RMK WIND GAGNHEIDI 07024KT
Conditions at: BIEG (EGILSSTADIR , IS) observed 0300 UTC 22 July 2019
Temperature: 9.0°C (48°F)
Dewpoint: 8.0°C (46°F) [RH = 93%]
Pressure (altimeter): 29.68 inches Hg (1005.0 mb)
Winds: from the N (10 degrees) at 16 MPH (14 knots; 7.2 m/s)
Visibility: 6 or more miles (10+ km)
Ceiling: 400 feet AGL
Clouds: overcast cloud deck at 400 feet AGL
Weather: no significant weather observed at this time

METAR text: BIEG 220200Z 01013KT 9999 VCSH OVC003 09/08 Q1005 RMK WIND GAGNHEIDI 07029KT
Conditions at: BIEG (EGILSSTADIR , IS) observed 0200 UTC 22 July 2019
Temperature: 9.0°C (48°F)
Dewpoint: 8.0°C (46°F) [RH = 93%]
Pressure (altimeter): 29.68 inches Hg (1005.0 mb)
Winds: from the N (10 degrees) at 15 MPH (13 knots; 6.7 m/s)
Visibility: 6 or more miles (10+ km)
Ceiling: 300 feet AGL
Clouds: overcast cloud deck at 300 feet AGL
Weather: VCSH  (showers in vicinity)

METAR text: BIEG 220100Z 01013KT 9999 VCSH OVC004 08/08 Q1006 RMK WIND GAGNHEIDI 07024KT
Conditions at: BIEG (EGILSSTADIR , IS) observed 0100 UTC 22 July 2019
Temperature: 8.0°C (46°F)
Dewpoint: 8.0°C (46°F) [RH = 100%]
Pressure (altimeter): 29.70 inches Hg (1006.0 mb)
Winds: from the N (10 degrees) at 15 MPH (13 knots; 6.7 m/s)
Visibility: 6 or more miles (10+ km)
Ceiling: 400 feet AGL
Clouds: overcast cloud deck at 400 feet AGL
Weather: VCSH  (showers in vicinity)

METAR text: BIEG 220000Z 01013KT 9999 VCSH OVC004 09/08 Q1006 RMK WIND GAGNHEIDI 07024KT
Conditions at: BIEG (EGILSSTADIR , IS) observed 0000 UTC 22 July 2019
Temperature: 9.0°C (48°F)
Dewpoint: 8.0°C (46°F) [RH = 93%]
Pressure (altimeter): 29.70 inches Hg (1006.0 mb)
Winds: from the N (10 degrees) at 15 MPH (13 knots; 6.7 m/s)
Visibility: 6 or more miles (10+ km)
Ceiling: 400 feet AGL
Clouds: overcast cloud deck at 400 feet AGL
Weather: VCSH  (showers in vicinity)

METAR text: BIEG 212300Z 36013KT 9999 OVC004 09/08 Q1006 RMK WIND GAGNHEIDI 07022KT
Conditions at: BIEG (EGILSSTADIR , IS) observed 2300 UTC 21 July 2019
Temperature: 9.0°C (48°F)
Dewpoint: 8.0°C (46°F) [RH = 93%]
Pressure (altimeter): 29.70 inches Hg (1006.0 mb)
Winds: from the N (360 degrees) at 15 MPH (13 knots; 6.7 m/s)
Visibility: 6 or more miles (10+ km)
Ceiling: 400 feet AGL
Clouds: overcast cloud deck at 400 feet AGL
Weather: no significant weather observed at this time

METAR text: BIEG 212200Z 01013KT 9999 BKN004 OVC025 09/08 Q1006 RMK WIND GAGNHEIDI 08022KT
Conditions at: BIEG (EGILSSTADIR , IS) observed 2200 UTC 21 July 2019
Temperature: 9.0°C (48°F)
Dewpoint: 8.0°C (46°F) [RH = 93%]
Pressure (altimeter): 29.70 inches Hg (1006.0 mb)
Winds: from the N (10 degrees) at 15 MPH (13 knots; 6.7 m/s)
Visibility: 6 or more miles (10+ km)
Ceiling: 400 feet AGL
Clouds: broken clouds at 400 feet AGL
overcast cloud deck at 2500 feet AGL
Weather: no significant weather observed at this time

Forecast for: BIEG (EGILSSTADIR , IS)
Text: TAF BIEG 230720Z 2309/2409 01005KT 9999 FEW008 BKN015 OVC035 TX10/2315Z TN07/2406Z
Forecast period: 0900 UTC 23 July 2019 to 0900 UTC 24 July 2019
Forecast type: FROM: standard forecast or significant change
Winds: from the N (10 degrees) at 6 MPH (5 knots; 2.6 m/s)
Visibility: 6 or more miles 10+ km)
Ceiling: 1500 feet AGL
Clouds: few clouds at 800 feet AGL
broken clouds at 1500 feet AGL
overcast cloud deck at 3500 feet AGL
Weather: no significant weather forecast for this period
Text: PROB40
Forecast period: 0900 to 1100 UTC 23 July 2019
Forecast type: TEMPORARY: The following changes expected for less than half the time period
Visibility: missing
Ceiling: 1000 feet AGL
Clouds: broken clouds at 1000 feet AGL
overcast cloud deck at 1500 feet AGL
Weather: -DZ  (light drizzle)
Text: TEMPO 2309/2311 -DZ BKN010 OVC015
Forecast period: 2200 UTC 23 July 2019 to 0900 UTC 24 July 2019
Forecast type: TEMPORARY: The following changes expected for less than half the time period
Visibility: 3 miles (5 km)
Ceiling: 500 feet AGL
Clouds: broken clouds at 500 feet AGL
overcast cloud deck at 1000 feet AGL
Weather: DZ BR  (moderate drizzle, mist)